createdAt,value
2023-04-27T00:00:21.707Z,5.09
2023-04-27T00:01:43.301Z,5.08
2023-04-27T00:02:45.053Z,5.08
2023-04-27T00:03:46.827Z,5.08
2023-04-27T00:04:48.548Z,5.09
2023-04-27T00:05:50.959Z,5.08
2023-04-27T00:06:52.577Z,5.08
2023-04-27T00:07:54.049Z,5.08
2023-04-27T00:08:55.855Z,5.07
2023-04-27T00:09:57.447Z,5.06
2023-04-27T00:10:59.452Z,5.05
2023-04-27T00:12:01.298Z,5.04
2023-04-27T00:13:03.057Z,5.04
2023-04-27T00:14:04.624Z,5.04
2023-04-27T00:15:06.910Z,5.03
2023-04-27T00:16:08.450Z,5.03
2023-04-27T00:17:10.352Z,5.03
2023-04-27T00:18:11.752Z,5.03
2023-04-27T00:19:15.012Z,5.04
2023-04-27T00:20:18.011Z,5.04
2023-04-27T00:21:19.551Z,5.04
2023-04-27T00:22:21.083Z,5.05
2023-04-27T00:23:22.492Z,5.05
2023-04-27T00:24:23.905Z,5.05
2023-04-27T00:25:25.441Z,5.05
2023-04-27T00:26:27.052Z,5.05
2023-04-27T00:27:28.649Z,5.05
2023-04-27T00:28:30.233Z,5.04
2023-04-27T00:29:33.507Z,5.03
2023-04-27T00:30:35.429Z,5.01
2023-04-27T00:31:36.884Z,4.99
2023-04-27T00:32:38.361Z,4.99
2023-04-27T00:33:39.943Z,4.99
2023-04-27T00:34:41.353Z,4.98
2023-04-27T00:35:42.752Z,4.98
2023-04-27T00:36:44.155Z,4.99
2023-04-27T00:37:47.416Z,4.99
2023-04-27T00:38:48.870Z,4.99
2023-04-27T00:39:50.455Z,4.99
2023-04-27T00:40:52.484Z,4.98
2023-04-27T00:41:54.742Z,4.97
2023-04-27T00:42:56.303Z,4.98
2023-04-27T00:43:58.015Z,4.98
2023-04-27T00:45:01.676Z,4.99
2023-04-27T00:46:03.293Z,4.99
2023-04-27T00:47:05.408Z,4.99
2023-04-27T00:48:06.931Z,4.99
2023-04-27T00:49:08.861Z,4.99
2023-04-27T00:50:11.449Z,4.99
2023-04-27T00:51:13.082Z,4.99
2023-04-27T00:52:14.870Z,4.99
2023-04-27T00:53:18.234Z,4.98
2023-04-27T00:54:23.159Z,4.99
2023-04-27T00:55:24.925Z,4.98
2023-04-27T00:56:26.427Z,4.97
2023-04-27T00:57:27.878Z,4.97
2023-04-27T00:58:29.621Z,4.96
2023-04-27T00:59:31.270Z,4.96
2023-04-27T01:00:35.443Z,4.95
2023-04-27T01:01:37.021Z,4.95
2023-04-27T01:02:39.579Z,4.94
2023-04-27T01:03:41.305Z,4.93
2023-04-27T01:04:42.854Z,4.94
2023-04-27T01:05:44.252Z,4.94
2023-04-27T01:06:45.798Z,4.94
2023-04-27T01:07:47.269Z,4.94
2023-04-27T01:08:48.757Z,4.95
2023-04-27T01:09:50.237Z,4.94
2023-04-27T01:10:52.276Z,4.94
2023-04-27T01:11:53.683Z,4.94
2023-04-27T01:12:55.607Z,4.93
2023-04-27T01:13:57.185Z,4.92
2023-04-27T01:14:58.828Z,4.92
2023-04-27T01:16:00.217Z,4.93
2023-04-27T01:17:01.897Z,4.93
2023-04-27T01:18:03.716Z,4.93
2023-04-27T01:19:07.108Z,4.92
2023-04-27T01:20:09.361Z,4.92
2023-04-27T01:21:10.969Z,4.91
2023-04-27T01:22:14.529Z,4.90
2023-04-27T01:23:17.272Z,4.91
2023-04-27T01:24:19.123Z,4.89
2023-04-27T01:25:20.583Z,4.88
2023-04-27T01:26:22.049Z,4.87
2023-04-27T01:27:23.707Z,4.86
2023-04-27T01:28:25.198Z,4.85
2023-04-27T01:29:26.780Z,4.84
2023-04-27T01:30:29.380Z,4.84
2023-04-27T01:32:59.583Z,4.82
2023-04-27T01:34:01.497Z,4.81
2023-04-27T01:35:03.014Z,4.81
2023-04-27T01:36:04.718Z,4.82
2023-04-27T01:37:06.159Z,4.82
2023-04-27T01:38:07.802Z,4.83
2023-04-27T01:39:09.360Z,4.83
2023-04-27T01:40:11.311Z,4.83
2023-04-27T01:41:12.970Z,4.82
2023-04-27T01:42:16.521Z,4.82
2023-04-27T01:43:17.978Z,4.81
2023-04-27T01:44:20.452Z,4.81
2023-04-27T01:45:22.574Z,4.81
2023-04-27T01:46:24.043Z,4.80
2023-04-27T01:47:26.848Z,4.80
2023-04-27T01:48:28.271Z,4.79
2023-04-27T01:49:29.696Z,4.78
2023-04-27T01:50:31.265Z,4.77
2023-04-27T01:51:32.951Z,4.78
2023-04-27T01:52:34.701Z,4.77
2023-04-27T01:53:37.274Z,4.77
2023-04-27T01:54:38.654Z,4.77
2023-04-27T01:55:41.326Z,4.77
2023-04-27T01:56:42.834Z,4.77
2023-04-27T01:57:44.357Z,4.75
2023-04-27T01:58:46.084Z,4.74
2023-04-27T01:59:48.206Z,4.73
2023-04-27T02:00:49.992Z,4.72
2023-04-27T02:01:51.383Z,4.72
2023-04-27T02:02:53.610Z,4.71
2023-04-27T02:03:55.522Z,4.70
2023-04-27T02:04:57.170Z,4.70
2023-04-27T02:06:01.024Z,4.69
2023-04-27T02:07:02.791Z,4.69
2023-04-27T02:08:04.592Z,4.68
2023-04-27T02:09:06.709Z,4.69
2023-04-27T02:10:08.542Z,4.69
2023-04-27T02:11:10.112Z,4.69
2023-04-27T02:12:11.513Z,4.70
2023-04-27T02:13:13.023Z,4.70
2023-04-27T02:14:14.377Z,4.70
2023-04-27T02:15:16.007Z,4.68
2023-04-27T02:16:17.519Z,4.68
2023-04-27T02:17:19.089Z,4.67
2023-04-27T02:18:20.893Z,4.67
2023-04-27T02:19:22.677Z,4.66
2023-04-27T02:20:24.141Z,4.64
2023-04-27T02:21:25.838Z,4.63
2023-04-27T02:22:27.262Z,4.62
2023-04-27T02:23:28.658Z,4.60
2023-04-27T02:24:30.574Z,4.59
2023-04-27T02:25:32.055Z,4.58
2023-04-27T02:26:33.433Z,4.58
2023-04-27T02:27:40.184Z,4.58
2023-04-27T02:28:42.176Z,4.58
2023-04-27T02:29:44.192Z,4.57
2023-04-27T02:30:46.569Z,4.57
2023-04-27T02:31:48.193Z,4.57
2023-04-27T02:32:49.653Z,4.57
2023-04-27T02:33:51.292Z,4.56
2023-04-27T02:34:52.843Z,4.55
2023-04-27T02:35:54.238Z,4.54
2023-04-27T02:36:55.922Z,4.51
2023-04-27T02:37:57.387Z,4.51
2023-04-27T02:38:58.853Z,4.49
2023-04-27T02:40:00.427Z,4.47
2023-04-27T02:41:01.874Z,4.46
2023-04-27T02:42:03.484Z,4.45
2023-04-27T02:43:04.899Z,4.44
2023-04-27T02:44:06.371Z,4.42
2023-04-27T02:45:08.078Z,4.40
2023-04-27T02:46:11.529Z,4.38
2023-04-27T02:47:13.073Z,4.37
2023-04-27T02:48:14.536Z,4.35
2023-04-27T02:49:16.570Z,4.34
2023-04-27T02:50:18.410Z,4.33
2023-04-27T02:51:19.833Z,4.33
2023-04-27T02:52:21.508Z,4.31
2023-04-27T02:53:22.962Z,4.31
2023-04-27T02:54:24.849Z,4.31
2023-04-27T02:55:26.871Z,4.31
2023-04-27T02:56:28.291Z,4.31
2023-04-27T02:57:30.047Z,4.31
2023-04-27T02:58:31.547Z,4.31
2023-04-27T02:59:32.921Z,4.29
2023-04-27T03:00:34.382Z,4.29
2023-04-27T03:01:35.989Z,4.29
2023-04-27T03:02:37.798Z,4.27
2023-04-27T03:03:39.521Z,4.27
2023-04-27T03:04:41.331Z,4.25
2023-04-27T03:05:42.944Z,4.24
2023-04-27T03:06:44.428Z,4.24
2023-04-27T03:07:45.877Z,4.24
2023-04-27T03:08:47.260Z,4.24
2023-04-27T03:09:48.686Z,4.23
2023-04-27T03:10:50.293Z,4.23
2023-04-27T03:11:52.138Z,4.23
2023-04-27T03:12:53.554Z,4.23
2023-04-27T03:13:56.325Z,4.22
2023-04-27T03:14:58.947Z,4.21
2023-04-27T03:16:00.458Z,4.20
2023-04-27T03:17:02.527Z,4.20
2023-04-27T03:18:04.303Z,4.20
2023-04-27T03:19:06.487Z,4.19
2023-04-27T03:20:09.351Z,4.18
2023-04-27T03:21:12.088Z,4.18
2023-04-27T03:22:13.567Z,4.18
2023-04-27T03:23:16.831Z,4.18
2023-04-27T03:24:19.319Z,4.18
2023-04-27T03:25:21.280Z,4.18
2023-04-27T03:26:23.156Z,4.17
2023-04-27T03:27:24.674Z,4.16
2023-04-27T03:28:26.126Z,4.16
2023-04-27T03:29:30.530Z,4.15
2023-04-27T03:30:32.035Z,4.14
2023-04-27T03:31:33.449Z,4.13
2023-04-27T03:32:35.054Z,4.13
2023-04-27T03:33:37.178Z,4.13
2023-04-27T03:34:38.651Z,4.13
2023-04-27T03:35:40.478Z,4.13
2023-04-27T03:36:41.921Z,4.13
2023-04-27T03:37:45.431Z,4.12
2023-04-27T03:38:46.920Z,4.12
2023-04-27T03:39:48.673Z,4.11
2023-04-27T03:40:50.645Z,4.12
2023-04-27T03:41:52.154Z,4.12
2023-04-27T03:42:53.679Z,4.12
2023-04-27T03:43:55.304Z,4.13
2023-04-27T03:44:56.768Z,4.14
2023-04-27T03:45:58.278Z,4.15
2023-04-27T03:47:01.036Z,4.16
2023-04-27T03:48:02.571Z,4.17
2023-04-27T03:49:04.250Z,4.18
2023-04-27T03:50:06.281Z,4.20
2023-04-27T03:51:07.646Z,4.20
2023-04-27T03:52:09.502Z,4.21
2023-04-27T03:53:10.909Z,4.22
2023-04-27T03:54:12.291Z,4.22
2023-04-27T03:55:13.885Z,4.23
2023-04-27T03:56:15.813Z,4.24
2023-04-27T03:57:17.248Z,4.25
2023-04-27T03:58:18.750Z,4.25
2023-04-27T03:59:38.684Z,4.25
2023-04-27T04:00:40.356Z,4.24
2023-04-27T04:01:41.856Z,4.25
2023-04-27T04:02:44.277Z,4.25
2023-04-27T04:03:47.455Z,4.25
2023-04-27T04:04:49.256Z,4.26
2023-04-27T04:05:52.247Z,4.26
2023-04-27T04:06:53.789Z,4.27
2023-04-27T04:07:55.579Z,4.28
2023-04-27T04:08:57.827Z,4.29
2023-04-27T04:09:59.380Z,4.30
2023-04-27T04:11:00.927Z,4.31
2023-04-27T04:12:03.095Z,4.32
2023-04-27T04:13:04.816Z,4.34
2023-04-27T04:14:06.241Z,4.36
2023-04-27T04:15:08.180Z,4.39
2023-04-27T04:16:09.888Z,4.41
2023-04-27T04:17:11.368Z,4.43
2023-04-27T04:18:15.262Z,4.45
2023-04-27T04:19:17.129Z,4.47
2023-04-27T04:20:18.771Z,4.49
2023-04-27T04:21:20.352Z,4.51
2023-04-27T04:22:22.782Z,4.52
2023-04-27T04:23:24.498Z,4.54
2023-04-27T04:24:25.920Z,4.55
2023-04-27T04:25:27.530Z,4.57
2023-04-27T04:26:30.126Z,4.59
2023-04-27T04:27:31.676Z,4.61
2023-04-27T04:28:33.097Z,4.63
2023-04-27T04:29:34.759Z,4.67
2023-04-27T04:30:36.117Z,4.69
2023-04-27T04:31:37.844Z,4.72
2023-04-27T04:32:39.655Z,4.75
2023-04-27T04:33:41.319Z,4.78
2023-04-27T04:34:42.706Z,4.81
2023-04-27T04:35:44.267Z,4.85
2023-04-27T04:36:45.861Z,4.88
2023-04-27T04:37:47.350Z,4.91
2023-04-27T04:38:49.260Z,4.95
2023-04-27T04:39:51.615Z,4.98
2023-04-27T04:40:53.180Z,5.02
2023-04-27T04:41:54.584Z,5.05
2023-04-27T04:42:57.080Z,5.09
2023-04-27T04:43:58.941Z,5.11
2023-04-27T04:45:00.369Z,5.14
2023-04-27T04:46:01.854Z,5.18
2023-04-27T04:47:03.460Z,5.22
2023-04-27T04:48:05.337Z,5.27
2023-04-27T04:49:07.423Z,5.32
2023-04-27T04:50:09.600Z,5.35
2023-04-27T04:51:11.145Z,5.39
2023-04-27T04:52:12.565Z,5.44
2023-04-27T04:53:14.127Z,5.48
2023-04-27T04:54:16.789Z,5.53
2023-04-27T04:55:18.439Z,5.56
2023-04-27T04:56:20.526Z,5.60
2023-04-27T04:57:22.099Z,5.64
2023-04-27T04:58:23.688Z,5.70
2023-04-27T04:59:25.676Z,5.76
2023-04-27T05:00:27.300Z,5.80
2023-04-27T05:01:28.797Z,5.84
2023-04-27T05:02:30.369Z,5.90
2023-04-27T05:03:32.429Z,5.96
2023-04-27T05:04:34.298Z,6.01
2023-04-27T05:05:35.855Z,6.05
2023-04-27T05:06:37.289Z,6.10
2023-04-27T05:07:38.718Z,6.13
2023-04-27T05:08:40.224Z,6.18
2023-04-27T05:09:42.096Z,6.22
2023-04-27T05:10:53.324Z,6.27
2023-04-27T05:11:54.876Z,6.31
2023-04-27T05:12:56.320Z,6.37
2023-04-27T05:13:57.745Z,6.42
2023-04-27T05:14:59.479Z,6.48
2023-04-27T05:16:05.613Z,6.52
2023-04-27T05:17:07.314Z,6.57
2023-04-27T05:18:08.857Z,6.63
2023-04-27T05:19:10.327Z,6.69
2023-04-27T05:20:11.981Z,6.74
2023-04-27T05:21:15.271Z,6.81
2023-04-27T05:22:16.808Z,6.87
2023-04-27T05:23:18.199Z,6.94
2023-04-27T05:24:19.765Z,7.01
2023-04-27T05:25:21.338Z,7.08
2023-04-27T05:26:22.788Z,7.13
2023-04-27T05:27:24.237Z,7.19
2023-04-27T05:28:25.659Z,7.26
2023-04-27T05:29:27.439Z,7.37
2023-04-27T05:30:29.086Z,7.46
2023-04-27T05:31:30.504Z,7.53
2023-04-27T05:32:33.093Z,7.59
2023-04-27T05:33:34.745Z,7.64
2023-04-27T05:34:36.379Z,7.69
2023-04-27T05:35:37.852Z,7.75
2023-04-27T05:36:39.433Z,7.78
2023-04-27T05:37:40.963Z,7.83
2023-04-27T05:38:42.752Z,7.87
2023-04-27T05:39:44.341Z,7.91
2023-04-27T05:40:45.828Z,7.93
2023-04-27T05:41:47.283Z,7.93
2023-04-27T05:42:49.056Z,7.94
2023-04-27T05:43:50.729Z,7.93
2023-04-27T05:44:52.190Z,7.91
2023-04-27T05:45:53.806Z,7.88
2023-04-27T05:46:55.678Z,7.86
2023-04-27T05:47:57.110Z,7.81
2023-04-27T05:48:58.870Z,7.79
2023-04-27T05:50:00.372Z,7.78
2023-04-27T05:51:03.038Z,7.78
2023-04-27T05:52:04.482Z,7.78
2023-04-27T05:53:06.408Z,7.81
2023-04-27T05:54:07.887Z,7.83
2023-04-27T05:55:10.120Z,7.85
2023-04-27T05:56:11.631Z,7.88
2023-04-27T05:57:13.392Z,7.92
2023-04-27T05:58:15.517Z,7.96
2023-04-27T05:59:17.253Z,7.99
2023-04-27T06:00:21.612Z,8.01
2023-04-27T06:01:23.207Z,8.04
2023-04-27T06:02:25.042Z,8.07
2023-04-27T06:03:26.943Z,8.10
2023-04-27T06:04:29.190Z,8.12
2023-04-27T06:05:30.752Z,8.14
2023-04-27T06:06:32.881Z,8.16
2023-04-27T06:07:34.327Z,8.19
2023-04-27T06:08:38.699Z,8.22
2023-04-27T06:09:40.950Z,8.24
2023-04-27T06:10:42.410Z,8.26
2023-04-27T06:11:44.248Z,8.29
2023-04-27T06:12:46.396Z,8.35
2023-04-27T06:13:47.914Z,8.43
2023-04-27T06:14:49.350Z,8.49
2023-04-27T06:15:50.828Z,8.49
2023-04-27T06:16:52.434Z,8.47
2023-04-27T06:17:53.934Z,8.44
2023-04-27T06:18:55.617Z,8.38
2023-04-27T06:19:57.088Z,8.36
2023-04-27T06:21:00.857Z,8.34
2023-04-27T06:22:03.426Z,8.31
2023-04-27T06:23:04.965Z,8.30
2023-04-27T06:24:06.654Z,8.29
2023-04-27T06:25:08.419Z,8.28
2023-04-27T06:26:10.490Z,8.25
2023-04-27T06:27:12.627Z,8.23
2023-04-27T06:28:14.083Z,8.22
2023-04-27T06:29:15.688Z,8.20
2023-04-27T06:30:17.331Z,8.20
2023-04-27T06:31:18.828Z,8.22
2023-04-27T06:32:20.438Z,8.23
2023-04-27T06:33:21.987Z,8.26
2023-04-27T06:34:23.380Z,8.28
2023-04-27T06:35:24.877Z,8.29
2023-04-27T06:36:27.273Z,8.27
2023-04-27T06:37:29.488Z,8.25
2023-04-27T06:38:31.449Z,8.26
2023-04-27T06:39:33.099Z,8.27
2023-04-27T06:40:35.178Z,8.30
2023-04-27T06:41:36.593Z,8.33
2023-04-27T06:42:38.099Z,8.35
2023-04-27T06:43:39.533Z,8.37
2023-04-27T06:44:41.333Z,8.42
2023-04-27T06:45:42.964Z,8.47
2023-04-27T06:46:44.409Z,8.53
2023-04-27T06:47:45.821Z,8.57
2023-04-27T06:48:47.291Z,8.57
2023-04-27T06:49:49.888Z,8.60
2023-04-27T06:50:51.500Z,8.63
2023-04-27T06:51:53.084Z,8.67
2023-04-27T06:52:54.650Z,8.69
2023-04-27T06:53:56.715Z,8.70
2023-04-27T06:54:58.166Z,8.71
2023-04-27T06:55:59.719Z,8.70
2023-04-27T06:57:01.192Z,8.70
2023-04-27T06:58:02.788Z,8.71
2023-04-27T06:59:04.402Z,8.71
2023-04-27T07:00:06.606Z,8.73
2023-04-27T07:01:08.196Z,8.74
2023-04-27T07:02:10.378Z,8.77
2023-04-27T07:03:12.498Z,8.81
2023-04-27T07:04:14.189Z,8.85
2023-04-27T07:05:15.727Z,8.88
2023-04-27T07:06:17.174Z,8.93
2023-04-27T07:07:18.662Z,8.98
2023-04-27T07:08:20.358Z,8.98
2023-04-27T07:10:28.012Z,9.00
2023-04-27T07:11:29.440Z,9.03
2023-04-27T07:12:30.903Z,9.05
2023-04-27T07:13:32.610Z,9.05
2023-04-27T07:14:34.211Z,9.05
2023-04-27T07:15:35.960Z,9.06
2023-04-27T07:16:38.722Z,9.06
2023-04-27T07:17:40.913Z,9.03
2023-04-27T07:18:43.683Z,9.01
2023-04-27T07:19:45.169Z,8.99
2023-04-27T07:20:46.565Z,9.00
2023-04-27T07:21:48.003Z,9.02
2023-04-27T07:22:49.708Z,9.06
2023-04-27T07:23:51.303Z,9.06
2023-04-27T07:24:53.478Z,9.04
2023-04-27T07:25:55.031Z,8.99
2023-04-27T07:26:58.731Z,8.95
2023-04-27T07:28:00.150Z,8.89
2023-04-27T07:29:08.253Z,8.83
2023-04-27T07:30:13.658Z,8.78
2023-04-27T07:31:15.443Z,8.74
2023-04-27T07:32:17.403Z,8.72
2023-04-27T07:33:18.905Z,8.69
2023-04-27T07:34:20.421Z,8.65
2023-04-27T07:35:22.076Z,8.64
2023-04-27T07:36:23.503Z,8.67
2023-04-27T07:37:26.069Z,8.72
2023-04-27T07:38:29.474Z,8.76
2023-04-27T07:39:31.027Z,8.77
2023-04-27T07:40:33.878Z,8.78
2023-04-27T07:41:35.336Z,8.80
2023-04-27T07:42:38.888Z,8.82
2023-04-27T07:43:41.604Z,8.88
2023-04-27T07:44:43.611Z,8.94
2023-04-27T07:45:45.222Z,9.01
2023-04-27T07:46:48.297Z,9.07
2023-04-27T07:47:49.979Z,9.11
2023-04-27T07:48:51.602Z,9.15
2023-04-27T07:49:53.545Z,9.17
2023-04-27T07:50:54.965Z,9.17
2023-04-27T07:51:56.781Z,9.16
2023-04-27T07:52:59.130Z,9.09
2023-04-27T07:54:01.942Z,9.00
2023-04-27T07:55:04.082Z,8.95
2023-04-27T07:56:05.969Z,8.97
2023-04-27T07:57:09.518Z,8.99
2023-04-27T07:58:11.092Z,8.97
2023-04-27T07:59:14.179Z,8.99
2023-04-27T08:00:16.939Z,9.03
2023-04-27T08:01:20.185Z,9.08
2023-04-27T08:02:22.926Z,9.14
2023-04-27T08:03:24.748Z,9.16
2023-04-27T08:04:27.023Z,9.18
2023-04-27T08:05:29.730Z,9.20
2023-04-27T08:06:32.110Z,9.23
2023-04-27T08:07:37.166Z,9.28
2023-04-27T08:08:42.573Z,9.28
2023-04-27T08:09:44.269Z,9.26
2023-04-27T08:10:45.848Z,9.26
2023-04-27T08:11:47.306Z,9.27
2023-04-27T08:12:49.161Z,9.28
2023-04-27T08:13:50.519Z,9.33
2023-04-27T08:14:52.150Z,9.41
2023-04-27T08:15:58.724Z,9.47
2023-04-27T08:17:00.433Z,9.57
2023-04-27T08:18:02.091Z,9.65
2023-04-27T08:19:03.661Z,9.75
2023-04-27T08:20:06.394Z,9.85
2023-04-27T08:21:08.067Z,9.95
2023-04-27T08:22:09.976Z,10.03
2023-04-27T08:23:11.812Z,10.02
2023-04-27T08:24:13.264Z,9.91
2023-04-27T08:25:15.203Z,9.75
2023-04-27T08:26:17.033Z,9.60
2023-04-27T08:27:18.459Z,9.36
2023-04-27T08:28:19.969Z,9.10
2023-04-27T08:29:27.799Z,8.82
2023-04-27T08:30:30.697Z,8.58
2023-04-27T08:31:32.610Z,8.41
2023-04-27T08:32:34.279Z,8.26
2023-04-27T08:33:36.025Z,8.14
2023-04-27T08:34:37.548Z,8.04
2023-04-27T08:35:39.002Z,7.98
2023-04-27T08:36:40.558Z,7.93
2023-04-27T08:37:42.185Z,7.89
2023-04-27T08:38:44.035Z,7.86
2023-04-27T08:39:47.312Z,7.82
2023-04-27T08:40:48.799Z,7.79
2023-04-27T08:41:50.949Z,7.75
2023-04-27T08:42:57.322Z,7.73
2023-04-27T08:43:59.654Z,7.73
2023-04-27T08:45:01.282Z,7.73
2023-04-27T08:46:02.831Z,7.76
2023-04-27T08:47:04.364Z,7.77
2023-04-27T08:48:05.838Z,7.79
2023-04-27T08:49:07.984Z,7.78
2023-04-27T08:50:10.963Z,7.78
2023-04-27T08:51:14.619Z,7.77
2023-04-27T08:52:17.027Z,7.79
2023-04-27T08:53:20.806Z,7.84
2023-04-27T08:54:22.238Z,7.92
2023-04-27T08:55:23.668Z,7.97
2023-04-27T08:56:27.321Z,8.02
2023-04-27T08:57:28.871Z,8.07
2023-04-27T08:58:37.297Z,8.13
2023-04-27T08:59:39.951Z,8.19
2023-04-27T09:00:44.477Z,8.24
2023-04-27T09:01:53.036Z,8.31
2023-04-27T09:02:55.341Z,8.38
2023-04-27T09:03:58.733Z,8.45
2023-04-27T09:05:00.696Z,8.53
2023-04-27T09:06:05.557Z,8.61
2023-04-27T09:07:15.176Z,8.69
2023-04-27T09:08:16.780Z,8.78
2023-04-27T09:09:22.828Z,8.88
2023-04-27T09:10:24.270Z,8.98
2023-04-27T09:11:32.404Z,9.10
2023-04-27T09:12:34.070Z,9.25
2023-04-27T09:13:37.424Z,9.37
2023-04-27T09:14:38.843Z,9.46
2023-04-27T09:15:46.424Z,9.54
2023-04-27T09:16:58.574Z,9.61
2023-04-27T09:18:00.116Z,9.68
2023-04-27T09:19:02.127Z,9.73
2023-04-27T09:20:12.642Z,9.78
2023-04-27T09:21:21.790Z,9.85
2023-04-27T09:22:23.170Z,9.93
2023-04-27T09:23:33.343Z,10.00
2023-04-27T09:24:35.353Z,10.06
2023-04-27T09:25:36.785Z,10.09
2023-04-27T09:26:38.374Z,10.11
2023-04-27T09:27:43.490Z,10.10
2023-04-27T09:28:47.827Z,10.00
2023-04-27T09:29:49.533Z,9.89
2023-04-27T09:30:54.113Z,9.82
2023-04-27T09:31:55.615Z,9.74
2023-04-27T09:33:01.350Z,9.64
2023-04-27T09:34:03.195Z,9.58
2023-04-27T09:35:20.016Z,9.54
2023-04-27T09:36:22.701Z,9.49
2023-04-27T09:37:26.340Z,9.42
2023-04-27T09:38:29.038Z,9.31
2023-04-27T09:39:30.786Z,9.17
2023-04-27T09:40:32.941Z,9.05
2023-04-27T09:41:34.964Z,8.94
2023-04-27T09:42:36.877Z,8.89
2023-04-27T09:43:38.988Z,8.87
2023-04-27T09:44:40.554Z,8.82
2023-04-27T09:45:42.792Z,8.78
2023-04-27T09:46:48.113Z,8.79
2023-04-27T09:47:49.633Z,8.82
2023-04-27T09:48:51.936Z,8.81
2023-04-27T09:49:53.461Z,8.82
2023-04-27T09:50:55.779Z,8.82
2023-04-27T09:51:58.185Z,8.82
2023-04-27T09:53:00.158Z,8.84
2023-04-27T09:54:03.952Z,8.84
2023-04-27T09:55:11.541Z,8.84
2023-04-27T09:56:29.085Z,8.88
2023-04-27T09:57:44.873Z,8.95
2023-04-27T09:59:01.075Z,8.99
2023-04-27T10:00:25.161Z,9.01
2023-04-27T10:01:42.819Z,9.01
2023-04-27T10:03:20.288Z,9.01
2023-04-27T10:04:30.781Z,8.90
2023-04-27T10:05:46.060Z,8.70
2023-04-27T10:07:12.027Z,8.46
2023-04-27T10:08:14.642Z,8.24
2023-04-27T10:09:22.956Z,8.11
2023-04-27T10:10:24.939Z,7.99
2023-04-27T10:11:40.997Z,7.88
2023-04-27T10:12:42.956Z,7.80
2023-04-27T10:13:55.070Z,7.73
2023-04-27T10:14:58.382Z,7.66
2023-04-27T10:16:15.912Z,7.62
2023-04-27T10:17:19.260Z,7.57
2023-04-27T10:18:30.289Z,7.55
2023-04-27T10:19:31.950Z,7.58
2023-04-27T10:20:37.287Z,7.65
2023-04-27T10:22:02.797Z,7.73
2023-04-27T10:23:04.646Z,7.83
2023-04-27T10:24:09.150Z,7.90
2023-04-27T10:25:17.121Z,7.98
2023-04-27T10:26:26.171Z,8.04
2023-04-27T10:27:27.598Z,8.10
2023-04-27T10:28:38.193Z,8.15
2023-04-27T10:29:42.417Z,8.21
2023-04-27T10:30:46.587Z,8.27
2023-04-27T10:31:48.311Z,8.31
2023-04-27T10:32:51.991Z,8.34
2023-04-27T10:33:53.655Z,8.38
2023-04-27T10:35:08.907Z,8.42
2023-04-27T10:36:14.919Z,8.47
2023-04-27T10:37:19.801Z,8.50
2023-04-27T10:38:27.884Z,8.49
2023-04-27T10:39:47.135Z,8.51
2023-04-27T10:41:00.842Z,8.55
2023-04-27T10:42:02.818Z,8.58
2023-04-27T10:43:09.524Z,8.61
2023-04-27T10:44:17.135Z,8.68
2023-04-27T10:45:31.137Z,8.72
2023-04-27T10:46:35.673Z,8.76
2023-04-27T10:47:47.130Z,8.82
2023-04-27T10:48:48.621Z,8.91
2023-04-27T10:49:56.130Z,8.95
2023-04-27T10:50:58.729Z,9.03
2023-04-27T10:52:04.137Z,9.09
2023-04-27T10:53:06.755Z,9.13
2023-04-27T10:54:08.348Z,9.14
2023-04-27T10:55:21.165Z,9.15
2023-04-27T10:56:24.197Z,9.24
2023-04-27T10:57:26.064Z,9.33
2023-04-27T10:58:37.854Z,9.43
2023-04-27T10:59:52.236Z,9.57
2023-04-27T11:00:53.953Z,9.70
2023-04-27T11:01:55.492Z,9.79
2023-04-27T11:03:10.493Z,9.86
2023-04-27T11:04:12.455Z,9.91
2023-04-27T11:05:19.003Z,9.95
2023-04-27T11:06:20.627Z,10.03
2023-04-27T11:07:27.475Z,10.10
2023-04-27T11:08:30.291Z,10.19
2023-04-27T11:09:31.810Z,10.26
2023-04-27T11:10:37.088Z,10.31
2023-04-27T11:11:43.799Z,10.39
2023-04-27T11:12:45.963Z,10.49
2023-04-27T11:13:49.272Z,10.57
2023-04-27T11:14:56.927Z,10.63
2023-04-27T11:15:59.317Z,10.69
2023-04-27T11:17:00.817Z,10.75
2023-04-27T11:18:06.297Z,10.80
2023-04-27T11:19:08.069Z,10.90
2023-04-27T11:20:10.023Z,11.01
2023-04-27T11:21:22.962Z,11.11
2023-04-27T11:22:24.889Z,11.27
2023-04-27T11:23:40.777Z,11.35
2023-04-27T11:24:49.819Z,11.50
2023-04-27T11:25:51.801Z,11.70
2023-04-27T11:26:53.325Z,11.90
2023-04-27T11:27:54.927Z,12.05
2023-04-27T11:29:11.797Z,12.12
2023-04-27T11:30:21.141Z,12.25
2023-04-27T11:31:22.738Z,12.34
2023-04-27T11:32:25.043Z,12.37
2023-04-27T11:33:27.554Z,12.38
2023-04-27T11:34:33.987Z,12.36
2023-04-27T11:35:35.932Z,12.31
2023-04-27T11:36:37.723Z,12.24
2023-04-27T11:37:39.310Z,12.15
2023-04-27T11:38:41.787Z,12.03
2023-04-27T11:39:45.143Z,11.95
2023-04-27T11:40:58.221Z,11.89
2023-04-27T11:42:21.270Z,11.74
2023-04-27T11:43:25.361Z,11.58
2023-04-27T11:44:27.168Z,11.52
2023-04-27T11:45:29.273Z,11.45
2023-04-27T11:46:31.252Z,11.44
2023-04-27T11:47:34.961Z,11.52
2023-04-27T11:48:38.453Z,11.67
2023-04-27T11:49:39.982Z,11.86
2023-04-27T11:50:48.299Z,12.04
2023-04-27T11:51:50.515Z,12.26
2023-04-27T11:52:52.752Z,12.46
2023-04-27T11:53:54.284Z,12.67
2023-04-27T11:54:56.087Z,12.85
2023-04-27T11:56:10.278Z,13.04
2023-04-27T11:57:13.135Z,13.28
2023-04-27T11:58:15.645Z,13.49
2023-04-27T11:59:22.460Z,13.69
2023-04-27T12:00:24.124Z,13.91
2023-04-27T12:01:36.966Z,14.11
2023-04-27T12:02:41.518Z,14.39
2023-04-27T12:03:43.286Z,14.50
2023-04-27T12:04:45.322Z,14.44
2023-04-27T12:05:49.322Z,14.38
2023-04-27T12:06:50.885Z,14.32
2023-04-27T12:07:52.853Z,14.33
2023-04-27T12:08:56.352Z,14.53
2023-04-27T12:09:59.528Z,14.79
2023-04-27T12:11:02.412Z,15.01
2023-04-27T12:12:03.985Z,15.21
2023-04-27T12:13:05.848Z,15.32
2023-04-27T12:14:07.408Z,15.43
2023-04-27T12:15:09.420Z,15.53
2023-04-27T12:16:11.115Z,15.60
2023-04-27T12:17:13.573Z,15.70
2023-04-27T12:18:16.402Z,15.76
2023-04-27T12:19:18.277Z,15.83
2023-04-27T12:20:20.536Z,15.96
2023-04-27T12:21:22.259Z,15.94
2023-04-27T12:22:23.768Z,15.90
2023-04-27T12:23:25.673Z,15.82
2023-04-27T12:24:27.229Z,15.70
2023-04-27T12:25:28.721Z,15.69
2023-04-27T12:26:30.876Z,15.67
2023-04-27T12:27:32.429Z,15.56
2023-04-27T12:28:34.188Z,15.40
2023-04-27T12:29:36.408Z,15.31
2023-04-27T12:30:37.955Z,15.39
2023-04-27T12:31:39.554Z,15.54
2023-04-27T12:32:41.212Z,15.72
2023-04-27T12:33:43.042Z,15.95
2023-04-27T12:34:46.104Z,16.21
2023-04-27T12:35:47.589Z,16.46
2023-04-27T12:36:49.076Z,16.74
2023-04-27T12:37:51.701Z,17.07
2023-04-27T12:38:58.424Z,17.38
2023-04-27T12:40:00.239Z,17.70
2023-04-27T12:41:01.952Z,18.02
2023-04-27T12:42:04.002Z,18.20
2023-04-27T12:43:07.834Z,18.14
2023-04-27T12:44:10.331Z,18.25
2023-04-27T12:45:11.938Z,18.53
2023-04-27T12:46:13.445Z,18.85
2023-04-27T12:47:27.786Z,19.12
2023-04-27T12:48:36.748Z,19.40
2023-04-27T12:49:38.577Z,19.56
2023-04-27T12:50:40.086Z,19.77
2023-04-27T12:51:42.015Z,19.90
2023-04-27T12:52:43.543Z,19.97
2023-04-27T12:53:45.133Z,19.99
2023-04-27T12:54:46.852Z,19.84
2023-04-27T12:55:49.706Z,19.76
2023-04-27T12:56:51.631Z,19.77
2023-04-27T12:57:53.133Z,19.77
2023-04-27T12:58:55.049Z,19.61
2023-04-27T12:59:57.420Z,19.41
2023-04-27T13:01:00.188Z,19.18
2023-04-27T13:02:02.571Z,18.87
2023-04-27T13:03:06.046Z,18.59
2023-04-27T13:04:10.200Z,18.41
2023-04-27T13:05:12.151Z,18.47
2023-04-27T13:06:13.653Z,18.56
2023-04-27T13:07:15.247Z,18.60
2023-04-27T13:08:16.884Z,18.66
2023-04-27T13:09:18.338Z,18.78
2023-04-27T13:10:20.417Z,18.97
2023-04-27T13:11:23.807Z,19.11
2023-04-27T13:12:25.496Z,19.28
2023-04-27T13:13:27.026Z,19.45
2023-04-27T13:14:28.653Z,19.39
2023-04-27T13:15:31.239Z,19.18
2023-04-27T13:16:32.980Z,19.08
2023-04-27T13:17:34.650Z,19.12
2023-04-27T13:18:36.501Z,19.24
2023-04-27T13:19:38.046Z,19.37
2023-04-27T13:20:39.678Z,19.51
2023-04-27T13:21:41.263Z,19.71
2023-04-27T13:22:42.816Z,19.86
2023-04-27T13:23:44.400Z,20.09
2023-04-27T13:24:46.328Z,20.30
2023-04-27T13:25:49.127Z,20.51
2023-04-27T13:26:50.708Z,20.75
2023-04-27T13:27:53.276Z,20.97
2023-04-27T13:28:54.842Z,21.06
2023-04-27T13:29:56.331Z,21.10
2023-04-27T13:30:59.621Z,21.11
2023-04-27T13:32:01.982Z,21.16
2023-04-27T13:33:18.393Z,21.15
2023-04-27T13:34:20.642Z,21.14
2023-04-27T13:35:23.126Z,21.24
2023-04-27T13:36:24.750Z,21.43
2023-04-27T13:37:26.532Z,21.63
2023-04-27T13:38:28.305Z,21.83
2023-04-27T13:39:29.768Z,22.04
2023-04-27T13:40:31.440Z,22.21
2023-04-27T13:41:33.303Z,22.31
2023-04-27T13:42:34.900Z,22.33
2023-04-27T13:43:36.427Z,22.37
2023-04-27T13:44:38.120Z,22.50
2023-04-27T13:45:41.779Z,22.73
2023-04-27T13:46:43.565Z,22.95
2023-04-27T13:47:45.314Z,23.16
2023-04-27T13:48:46.900Z,23.43
2023-04-27T13:49:49.093Z,23.60
2023-04-27T13:50:50.738Z,23.58
2023-04-27T13:51:52.372Z,23.30
2023-04-27T13:52:54.220Z,23.16
2023-04-27T13:53:55.749Z,23.20